Time;durP1;ratioP1;P1;durP2;ratioP2;P2;SDS_P1;SDS_P2;PMS_P1;PMS_P2;Temp;Humidity;BMP_temperature;BMP_pressure;BME280_temperature;BME280_humidity;BME280_pressure;Samples;Min_cycle;Max_cycle;Signal;HPM_P1;HPM_P2
2023/08/28 00:01:03;;;;;;;3.40;3.10;;;14.10;99.90;;;;;;4893098;29;20055;-81
2023/08/28 00:03:29;;;;;;;3.38;3.05;;;14.10;99.90;;;;;;4903223;29;20067;-84
2023/08/28 00:05:55;;;;;;;4.03;3.60;;;14.10;99.90;;;;;;4909530;29;20031;-82
2023/08/28 00:08:20;;;;;;;5.20;3.40;;;14.10;99.90;;;;;;4908738;29;20622;-82
2023/08/28 00:10:46;;;;;;;7.40;4.18;;;14.10;99.90;;;;;;4882590;29;20451;-82
2023/08/28 00:13:12;;;;;;;4.07;3.67;;;14.10;99.90;;;;;;4905513;29;20055;-83
2023/08/28 00:15:38;;;;;;;4.35;3.42;;;14.10;99.90;;;;;;4907384;29;20096;-83
2023/08/28 00:18:04;;;;;;;5.32;3.70;;;14.00;99.90;;;;;;4900697;29;20039;-83
2023/08/28 00:20:30;;;;;;;6.00;3.60;;;14.00;99.90;;;;;;4899740;29;20051;-83
2023/08/28 00:22:56;;;;;;;6.38;3.70;;;14.00;99.90;;;;;;4901744;29;20108;-83
2023/08/28 00:25:21;;;;;;;9.93;4.03;;;14.00;99.90;;;;;;4893263;29;20036;-82
2023/08/28 00:27:47;;;;;;;5.55;3.60;;;14.00;99.90;;;;;;4900107;29;20405;-80
2023/08/28 00:30:13;;;;;;;7.15;3.97;;;14.00;99.90;;;;;;4907947;29;20028;-82
2023/08/28 00:32:39;;;;;;;4.55;4.07;;;14.00;99.90;;;;;;4892814;29;20135;-81
2023/08/28 00:35:05;;;;;;;4.50;4.00;;;14.00;99.90;;;;;;4897825;29;20116;-82
2023/08/28 00:37:32;;;;;;;7.45;4.22;;;14.00;99.90;;;;;;4896576;29;20135;-81
2023/08/28 00:39:58;;;;;;;6.70;4.57;;;14.00;99.90;;;;;;4892084;29;20433;-81
2023/08/28 00:42:24;;;;;;;5.70;4.68;;;14.00;99.90;;;;;;4895861;29;20033;-83
2023/08/28 00:44:50;;;;;;;5.13;4.57;;;14.00;99.90;;;;;;4901500;29;20120;-82
2023/08/28 00:47:17;;;;;;;5.25;4.57;;;14.00;99.90;;;;;;4924286;29;20114;-81
2023/08/28 00:49:43;;;;;;;6.43;4.78;;;14.00;99.90;;;;;;4902504;29;20037;-81
2023/08/28 00:52:10;;;;;;;5.97;4.95;;;14.10;99.90;;;;;;4898401;29;20057;-83
2023/08/28 00:54:39;;;;;;;10.90;5.68;;;14.10;99.90;;;;;;4897500;29;20044;-81
2023/08/28 00:57:08;;;;;;;8.02;5.72;;;14.10;99.90;;;;;;4904474;29;20038;-81
2023/08/28 00:59:34;;;;;;;6.75;5.50;;;14.10;99.90;;;;;;4892330;29;20045;-81
2023/08/28 01:02:18;;;;;;;7.53;5.95;;;14.10;99.90;;;;;;4891743;29;20481;-83
2023/08/28 01:04:44;;;;;;;6.65;5.40;;;14.10;99.90;;;;;;4905686;29;20048;-82
2023/08/28 01:07:30;;;;;;;7.47;5.55;;;14.00;99.90;;;;;;4896246;29;20048;-80
2023/08/28 01:09:55;;;;;;;8.30;5.28;;;14.00;99.90;;;;;;4893428;29;20033;-80
2023/08/28 01:12:28;;;;;;;7.10;5.15;;;14.00;99.90;;;;;;4899076;29;20468;-81
2023/08/28 01:15:20;;;;;;;9.18;5.55;;;14.00;99.90;;;;;;4901056;29;20036;-82
2023/08/28 01:17:50;;;;;;;9.70;5.55;;;14.00;99.90;;;;;;4904778;29;20041;-82
2023/08/28 01:20:16;;;;;;;6.30;5.60;;;14.00;99.90;;;;;;4900468;29;20028;-81
2023/08/28 01:22:55;;;;;;;5.63;5.03;;;13.90;99.90;;;;;;4901309;29;20047;-82
2023/08/28 01:25:23;;;;;;;6.78;5.15;;;13.90;99.90;;;;;;4910282;29;20041;-81
2023/08/28 01:27:51;;;;;;;7.32;5.45;;;13.90;99.90;;;;;;4900462;29;20020;-81
2023/08/28 01:30:18;;;;;;;6.93;5.07;;;13.90;99.90;;;;;;4910722;29;20029;-82
2023/08/28 01:32:46;;;;;;;7.00;5.28;;;13.90;99.90;;;;;;4893657;29;20048;-82
2023/08/28 01:35:14;;;;;;;8.40;5.25;;;13.90;99.90;;;;;;4894569;29;20040;-80
2023/08/28 01:38:04;;;;;;;6.97;6.13;;;13.80;99.90;;;;;;4904724;29;20037;-82
2023/08/28 01:40:37;;;;;;;8.10;6.25;;;13.80;99.90;;;;;;4906451;29;20048;-81
2023/08/28 01:43:08;;;;;;;8.00;5.53;;;13.80;99.90;;;;;;4910873;29;20066;-80
2023/08/28 01:45:35;;;;;;;7.97;5.93;;;13.80;99.90;;;;;;4914346;29;20032;-83
2023/08/28 01:48:01;;;;;;;5.72;5.13;;;13.80;99.90;;;;;;4884625;29;20059;-81
2023/08/28 01:50:27;;;;;;;7.80;5.22;;;13.80;99.90;;;;;;4912804;29;20517;-82
2023/08/28 01:52:53;;;;;;;7.15;5.78;;;13.80;99.90;;;;;;4901028;29;20028;-83
2023/08/28 01:55:46;;;;;;;12.38;6.82;;;13.70;99.90;;;;;;4894059;29;20489;-80
2023/08/28 01:58:13;;;;;;;7.78;6.63;;;13.70;99.90;;;;;;4868325;29;20040;-81
2023/08/28 02:00:39;;;;;;;10.30;6.25;;;13.80;99.90;;;;;;4894901;29;20040;-82
2023/08/28 02:03:07;;;;;;;8.27;6.32;;;13.80;99.90;;;;;;4892985;29;20037;-82
2023/08/28 02:05:33;;;;;;;7.75;6.28;;;13.70;99.90;;;;;;4888044;29;20048;-80
2023/08/28 02:07:59;;;;;;;7.18;6.07;;;13.80;99.90;;;;;;4905638;29;20032;-81
2023/08/28 02:10:28;;;;;;;9.45;6.47;;;13.80;99.90;;;;;;4884248;29;20040;-82
2023/08/28 02:12:56;;;;;;;8.48;5.63;;;13.80;99.90;;;;;;4890164;29;20040;-80
2023/08/28 02:15:22;;;;;;;8.65;6.07;;;13.80;99.90;;;;;;4919312;29;20048;-81
2023/08/28 02:17:49;;;;;;;6.95;5.93;;;13.80;99.90;;;;;;4901835;29;20092;-81
2023/08/28 02:20:14;;;;;;;7.70;6.32;;;13.80;99.90;;;;;;4900687;29;20086;-81
2023/08/28 02:22:40;;;;;;;7.95;6.35;;;13.80;99.90;;;;;;4903037;29;20041;-83
2023/08/28 02:25:06;;;;;;;6.53;5.85;;;13.80;99.90;;;;;;4918627;29;20497;-83
2023/08/28 02:27:32;;;;;;;7.60;6.57;;;13.80;99.90;;;;;;4901236;29;20068;-83
2023/08/28 02:29:59;;;;;;;9.70;6.75;;;13.80;99.90;;;;;;4908020;29;20033;-81
2023/08/28 02:32:25;;;;;;;8.40;6.40;;;13.80;99.90;;;;;;4902154;29;20127;-83
2023/08/28 02:34:52;;;;;;;9.60;6.60;;;13.90;99.90;;;;;;4907066;29;20036;-83
2023/08/28 02:37:19;;;;;;;7.25;6.22;;;13.90;99.90;;;;;;4905396;29;20041;-83
2023/08/28 02:39:44;;;;;;;9.63;6.93;;;13.90;99.90;;;;;;4903703;29;20601;-82
2023/08/28 02:42:10;;;;;;;7.85;7.05;;;13.80;99.90;;;;;;4916844;29;20040;-82
2023/08/28 02:44:36;;;;;;;8.93;6.72;;;13.80;99.90;;;;;;4911739;29;20032;-80
2023/08/28 02:47:02;;;;;;;10.30;6.38;;;13.80;99.90;;;;;;4912838;29;20045;-82
2023/08/28 02:49:28;;;;;;;11.90;6.88;;;13.80;99.90;;;;;;4905703;29;20052;-83
2023/08/28 02:51:54;;;;;;;6.40;5.80;;;13.80;99.90;;;;;;4915280;29;20033;-82
2023/08/28 02:54:20;;;;;;;8.88;6.53;;;13.80;99.90;;;;;;4888683;29;20033;-83
2023/08/28 02:56:45;;;;;;;9.18;6.15;;;13.80;99.90;;;;;;4879252;29;20044;-82
2023/08/28 02:59:11;;;;;;;6.60;5.90;;;13.80;99.90;;;;;;4894243;29;20036;-83
2023/08/28 03:01:37;;;;;;;11.52;7.47;;;13.80;99.90;;;;;;4895666;29;20524;-81
2023/08/28 03:04:06;;;;;;;7.53;5.85;;;13.80;99.90;;;;;;4907087;29;20045;-82
2023/08/28 03:06:36;;;;;;;6.10;5.40;;;13.80;99.90;;;;;;4904227;29;20128;-83
2023/08/28 03:09:04;;;;;;;8.10;6.15;;;13.80;99.90;;;;;;4883578;29;20036;-83
2023/08/28 03:11:29;;;;;;;5.95;4.57;;;13.70;99.90;;;;;;4896714;29;20021;-82
2023/08/28 03:13:56;;;;;;;5.15;4.60;;;13.80;99.90;;;;;;4895553;29;20037;-82
2023/08/28 03:16:22;;;;;;;5.03;4.40;;;13.70;99.90;;;;;;4891714;29;20557;-83
2023/08/28 03:18:49;;;;;;;8.50;4.85;;;13.80;99.90;;;;;;4888696;29;20025;-81
2023/08/28 03:21:15;;;;;;;6.10;5.38;;;13.70;99.90;;;;;;4898246;29;20677;-83
2023/08/28 03:23:41;;;;;;;7.07;5.70;;;13.70;99.90;;;;;;4907336;29;20044;-83
2023/08/28 03:26:07;;;;;;;7.97;5.40;;;13.70;99.90;;;;;;4904818;29;20063;-81
2023/08/28 03:28:33;;;;;;;8.38;5.93;;;13.70;99.90;;;;;;4910412;29;20092;-83
2023/08/28 03:31:00;;;;;;;7.22;5.30;;;13.70;99.90;;;;;;4907429;29;20120;-81
2023/08/28 03:33:26;;;;;;;8.95;6.03;;;13.80;99.90;;;;;;4898634;29;20122;-82
2023/08/28 03:35:53;;;;;;;8.90;6.30;;;13.70;99.90;;;;;;4891089;29;20029;-82
2023/08/28 03:38:19;;;;;;;8.27;6.13;;;13.70;99.90;;;;;;4894444;29;20193;-82
2023/08/28 03:40:46;;;;;;;8.05;6.07;;;13.80;99.90;;;;;;4895295;29;20037;-82
2023/08/28 03:43:12;;;;;;;7.22;5.13;;;13.80;99.90;;;;;;4894831;29;20092;-81
2023/08/28 03:45:40;;;;;;;6.20;4.13;;;13.80;99.90;;;;;;4885769;29;20112;-84
2023/08/28 03:48:06;;;;;;;4.10;3.72;;;13.80;99.90;;;;;;4892664;29;20119;-81
2023/08/28 03:50:32;;;;;;;5.57;4.20;;;13.80;99.90;;;;;;4893726;29;20735;-82
2023/08/28 03:52:59;;;;;;;5.00;3.70;;;13.90;99.90;;;;;;4903663;29;20580;-82
2023/08/28 03:55:29;;;;;;;5.80;3.78;;;13.80;99.90;;;;;;4897481;29;20044;-83
2023/08/28 03:57:56;;;;;;;5.47;3.60;;;13.80;99.90;;;;;;4894090;29;20041;-83
2023/08/28 04:00:22;;;;;;;3.67;3.38;;;13.80;99.90;;;;;;4900834;29;20469;-82
2023/08/28 04:02:48;;;;;;;6.25;3.78;;;13.80;99.90;;;;;;4897506;29;20033;-82
2023/08/28 04:05:16;;;;;;;3.17;2.90;;;13.80;99.90;;;;;;4896168;29;20033;-83
2023/08/28 04:07:43;;;;;;;3.00;2.65;;;13.80;99.90;;;;;;4897968;29;20052;-84
2023/08/28 04:10:10;;;;;;;5.70;3.58;;;13.70;99.90;;;;;;4903622;29;20234;-80
2023/08/28 04:12:36;;;;;;;3.30;3.10;;;13.70;99.90;;;;;;4897555;29;20519;-83
2023/08/28 04:15:03;;;;;;;4.38;3.30;;;13.70;99.90;;;;;;4898217;29;20068;-82
2023/08/28 04:17:30;;;;;;;3.20;2.83;;;13.70;99.90;;;;;;4906819;29;20119;-83
2023/08/28 04:19:56;;;;;;;5.70;3.50;;;13.70;99.90;;;;;;4884434;29;20060;-83
2023/08/28 04:22:22;;;;;;;4.22;3.47;;;13.70;99.90;;;;;;4899041;29;20103;-81
2023/08/28 04:24:52;;;;;;;4.53;3.85;;;13.70;99.90;;;;;;4889657;29;20029;-83
2023/08/28 04:27:18;;;;;;;6.20;4.25;;;13.70;99.90;;;;;;4911592;29;20025;-82
2023/08/28 04:29:44;;;;;;;4.47;4.05;;;13.70;99.90;;;;;;4883700;29;20026;-82
2023/08/28 04:32:10;;;;;;;7.38;4.38;;;13.70;99.90;;;;;;4912721;29;20087;-82
2023/08/28 04:34:36;;;;;;;4.35;3.95;;;13.70;99.90;;;;;;4898252;29;20081;-81
2023/08/28 04:37:04;;;;;;;5.95;4.80;;;13.70;99.90;;;;;;4907490;29;20112;-83
2023/08/28 04:39:29;;;;;;;4.97;4.00;;;13.70;99.90;;;;;;4892802;29;20033;-83
2023/08/28 04:41:55;;;;;;;5.00;4.50;;;13.70;99.90;;;;;;4903956;29;20088;-81
2023/08/28 04:44:21;;;;;;;6.07;5.35;;;13.70;99.90;;;;;;4904888;29;20060;-81
2023/08/28 04:46:47;;;;;;;6.18;5.10;;;13.70;99.90;;;;;;4893425;29;20581;-82
2023/08/28 04:49:14;;;;;;;6.45;5.30;;;13.70;99.90;;;;;;4904121;29;20534;-81
2023/08/28 04:51:41;;;;;;;5.93;5.28;;;13.70;99.90;;;;;;4909742;29;20037;-81
2023/08/28 04:54:09;;;;;;;5.38;4.88;;;13.70;99.90;;;;;;4913951;29;20036;-81
2023/08/28 04:56:35;;;;;;;5.43;4.93;;;13.70;99.90;;;;;;4896022;29;20073;-81
2023/08/28 04:59:02;;;;;;;8.18;5.50;;;13.70;99.90;;;;;;4907359;29;20116;-83
2023/08/28 05:01:29;;;;;;;7.57;5.95;;;13.70;99.90;;;;;;4908629;29;20047;-81
2023/08/28 05:03:55;;;;;;;7.18;6.00;;;13.70;99.90;;;;;;4895946;29;20591;-82
2023/08/28 05:06:22;;;;;;;7.43;5.90;;;13.70;99.90;;;;;;4900570;29;20060;-83
2023/08/28 05:08:47;;;;;;;7.38;6.30;;;13.70;99.90;;;;;;4897150;29;20037;-83
2023/08/28 05:11:13;;;;;;;8.57;6.93;;;13.70;99.90;;;;;;4892800;29;20029;-81
2023/08/28 05:13:39;;;;;;;8.68;6.07;;;13.70;99.90;;;;;;4900877;29;20551;-82
2023/08/28 05:16:05;;;;;;;8.13;7.05;;;13.70;99.90;;;;;;4886363;29;20037;-83
2023/08/28 05:18:31;;;;;;;7.15;6.20;;;13.70;99.90;;;;;;4888664;29;20041;-83
2023/08/28 05:20:57;;;;;;;11.13;7.68;;;13.80;99.90;;;;;;4895044;29;20029;-81
2023/08/28 05:23:25;;;;;;;13.43;7.75;;;13.80;99.90;;;;;;4893131;29;20478;-81
2023/08/28 05:25:52;;;;;;;9.73;7.53;;;13.80;99.90;;;;;;4893846;29;20481;-81
2023/08/28 05:28:18;;;;;;;8.40;6.93;;;13.80;99.90;;;;;;4886376;29;20116;-82
2023/08/28 05:30:44;;;;;;;12.00;8.15;;;13.80;99.90;;;;;;4907993;29;20059;-82
2023/08/28 05:33:10;;;;;;;13.07;7.85;;;13.80;99.90;;;;;;4888432;29;20048;-83
2023/08/28 05:35:35;;;;;;;10.73;8.10;;;13.90;99.90;;;;;;4897578;29;20036;-83
2023/08/28 05:38:20;;;;;;;11.75;8.05;;;13.90;99.90;;;;;;4886569;29;20051;-83
2023/08/28 05:40:46;;;;;;;14.93;8.75;;;13.90;99.90;;;;;;4887832;29;20111;-83
2023/08/28 05:43:12;;;;;;;9.13;7.65;;;13.90;99.90;;;;;;4914340;29;20045;-82
2023/08/28 05:45:38;;;;;;;11.13;8.25;;;13.90;99.90;;;;;;4898158;29;20064;-82
2023/08/28 05:48:04;;;;;;;11.10;8.52;;;13.90;99.90;;;;;;4889513;29;20029;-82
2023/08/28 05:50:30;;;;;;;9.00;7.70;;;13.90;99.90;;;;;;4907001;29;20525;-82
2023/08/28 05:52:56;;;;;;;11.27;8.23;;;13.90;99.90;;;;;;4907924;29;20251;-83
2023/08/28 05:55:22;;;;;;;10.95;7.45;;;13.90;99.90;;;;;;4883784;29;20088;-83
2023/08/28 05:57:48;;;;;;;11.98;8.95;;;13.90;99.90;;;;;;4912102;29;20052;-82
2023/08/28 06:00:14;;;;;;;13.10;8.52;;;13.90;99.90;;;;;;4876959;29;20029;-82
2023/08/28 06:02:41;;;;;;;11.77;8.90;;;13.80;99.90;;;;;;4896117;29;20032;-82
2023/08/28 06:05:08;;;;;;;12.60;9.27;;;13.90;99.90;;;;;;4899604;29;20513;-83
2023/08/28 06:07:35;;;;;;;16.52;8.85;;;13.80;99.90;;;;;;4890765;29;20152;-82
2023/08/28 06:10:03;;;;;;;13.15;9.32;;;13.90;99.90;;;;;;4897956;29;20028;-82
2023/08/28 06:12:29;;;;;;;13.18;9.52;;;13.90;99.90;;;;;;4899808;29;20041;-83
2023/08/28 06:14:55;;;;;;;12.77;9.85;;;13.90;99.90;;;;;;4898804;29;20132;-83
2023/08/28 06:17:23;;;;;;;14.27;10.30;;;13.90;99.90;;;;;;4901925;29;20135;-83
2023/08/28 06:19:49;;;;;;;14.27;9.65;;;13.90;99.90;;;;;;4888885;29;20120;-83
2023/08/28 06:22:15;;;;;;;15.70;11.23;;;13.90;99.90;;;;;;4898271;29;20118;-83
2023/08/28 06:24:41;;;;;;;19.02;11.70;;;13.90;99.90;;;;;;4900725;29;20041;-82
2023/08/28 06:27:07;;;;;;;15.10;11.65;;;13.90;99.90;;;;;;4894752;29;20037;-83
2023/08/28 06:29:33;;;;;;;14.10;10.80;;;13.90;99.90;;;;;;4896232;29;20278;-82
2023/08/28 06:31:59;;;;;;;16.33;11.75;;;13.90;99.90;;;;;;4898369;29;20064;-82
2023/08/28 06:34:25;;;;;;;18.15;13.10;;;13.90;99.90;;;;;;4894959;29;20097;-83
2023/08/28 06:36:51;;;;;;;16.65;11.52;;;13.90;99.90;;;;;;4894751;29;20036;-80
2023/08/28 06:39:18;;;;;;;17.02;11.98;;;13.90;99.90;;;;;;4895425;29;20040;-81
2023/08/28 06:41:44;;;;;;;14.13;11.80;;;13.90;99.90;;;;;;4910283;29;20607;-82
2023/08/28 06:44:11;;;;;;;13.25;10.68;;;14.00;99.90;;;;;;4893883;29;20097;-82
2023/08/28 06:46:37;;;;;;;14.23;10.43;;;14.00;99.90;;;;;;4890976;29;20041;-82
2023/08/28 06:49:04;;;;;;;12.93;10.38;;;14.00;99.90;;;;;;4899460;29;20040;-81
2023/08/28 06:51:30;;;;;;;13.38;9.73;;;14.00;99.90;;;;;;4893039;29;20092;-80
2023/08/28 06:53:56;;;;;;;11.40;9.05;;;14.00;99.90;;;;;;4899476;29;20040;-81
2023/08/28 06:56:22;;;;;;;10.95;8.65;;;14.00;99.90;;;;;;4898468;29;20036;-82
2023/08/28 06:58:48;;;;;;;14.32;8.55;;;14.00;99.90;;;;;;4879307;29;20406;-82
2023/08/28 07:01:32;;;;;;;10.38;7.88;;;14.00;99.90;;;;;;4895048;29;20064;-81
2023/08/28 07:03:58;;;;;;;9.88;7.68;;;14.10;99.90;;;;;;4895431;29;20045;-81
2023/08/28 07:06:23;;;;;;;9.00;8.07;;;14.10;99.90;;;;;;4889829;29;20039;-83
2023/08/28 07:08:49;;;;;;;8.98;7.05;;;14.20;99.90;;;;;;4900031;29;20132;-81
2023/08/28 07:11:15;;;;;;;8.07;7.18;;;14.20;99.90;;;;;;4894303;29;20048;-83
2023/08/28 07:13:41;;;;;;;9.18;7.25;;;14.30;99.90;;;;;;4895050;29;20413;-82
2023/08/28 07:16:06;;;;;;;6.72;6.03;;;14.40;99.90;;;;;;4902081;29;20039;-82
2023/08/28 07:18:32;;;;;;;7.80;6.18;;;14.40;99.90;;;;;;4898522;29;20572;-82
2023/08/28 07:20:58;;;;;;;6.47;5.60;;;14.50;99.90;;;;;;4890843;29;20528;-83
2023/08/28 07:23:27;;;;;;;6.22;5.45;;;14.50;99.90;;;;;;4892297;29;20064;-83
2023/08/28 07:25:53;;;;;;;6.82;5.15;;;14.50;99.90;;;;;;4885689;29;20092;-82
2023/08/28 07:28:20;;;;;;;9.15;4.53;;;14.50;99.90;;;;;;4893805;29;20033;-81
2023/08/28 07:30:46;;;;;;;5.93;4.80;;;14.60;99.90;;;;;;4887639;29;20481;-84
2023/08/28 07:33:12;;;;;;;4.47;4.03;;;14.50;99.90;;;;;;4909792;29;20040;-81
2023/08/28 07:35:41;;;;;;;5.28;4.38;;;14.50;99.90;;;;;;4886681;29;20041;-83
2023/08/28 07:38:07;;;;;;;5.10;4.45;;;14.50;99.90;;;;;;4896886;29;20044;-84
2023/08/28 07:40:34;;;;;;;5.80;5.20;;;14.50;99.90;;;;;;4885697;29;20036;-82
2023/08/28 07:43:00;;;;;;;5.32;4.82;;;14.50;99.90;;;;;;4897684;29;20044;-81
2023/08/28 07:45:26;;;;;;;5.47;4.78;;;14.50;99.90;;;;;;4886437;29;20540;-83
2023/08/28 07:47:52;;;;;;;7.00;4.85;;;14.50;99.90;;;;;;4892278;29;20029;-82
2023/08/28 07:50:20;;;;;;;5.38;4.88;;;14.60;99.90;;;;;;4890924;29;20040;-84
2023/08/28 07:52:46;;;;;;;5.53;5.03;;;14.60;99.90;;;;;;4893388;29;20068;-85
2023/08/28 07:55:12;;;;;;;6.57;5.30;;;14.60;99.90;;;;;;4897009;29;20128;-82
2023/08/28 07:57:38;;;;;;;5.60;5.10;;;14.60;99.90;;;;;;4896796;29;20040;-82
2023/08/28 08:00:10;;;;;;;7.28;5.43;;;14.60;99.90;;;;;;4902978;29;20040;-84
2023/08/28 08:02:38;;;;;;;6.25;5.53;;;14.60;99.90;;;;;;4893999;29;20037;-83
2023/08/28 08:05:05;;;;;;;6.40;4.95;;;14.50;99.90;;;;;;4893296;29;20045;-83
2023/08/28 08:07:32;;;;;;;6.07;5.47;;;14.50;99.90;;;;;;4893425;29;20032;-83
2023/08/28 08:09:58;;;;;;;7.32;6.03;;;14.50;99.90;;;;;;4890953;29;20032;-82
2023/08/28 08:12:26;;;;;;;7.28;5.65;;;14.50;99.90;;;;;;4875011;29;20033;-82
2023/08/28 08:14:52;;;;;;;6.00;5.40;;;14.50;99.90;;;;;;4893321;29;20032;-82
2023/08/28 08:17:22;;;;;;;9.63;5.60;;;14.50;99.90;;;;;;4891675;29;20041;-82
2023/08/28 08:19:48;;;;;;;5.55;5.05;;;14.50;99.90;;;;;;4896033;29;20037;-83
2023/08/28 08:22:32;;;;;;;6.20;5.28;;;14.50;99.90;;;;;;4893734;29;20063;-82
2023/08/28 08:24:57;;;;;;;6.28;5.40;;;14.50;99.90;;;;;;4892558;29;20414;-83
2023/08/28 08:27:25;;;;;;;6.47;5.63;;;14.50;99.90;;;;;;4890862;29;20037;-83
2023/08/28 08:29:51;;;;;;;7.38;5.90;;;14.60;99.90;;;;;;4885570;29;20434;-82
2023/08/28 08:32:16;;;;;;;7.15;5.70;;;14.60;99.90;;;;;;4892527;29;20088;-84
2023/08/28 08:34:43;;;;;;;6.53;5.93;;;14.60;99.90;;;;;;4911383;29;20084;-82
2023/08/28 08:37:08;;;;;;;6.32;5.00;;;14.60;99.90;;;;;;4892046;29;20469;-82
2023/08/28 08:39:34;;;;;;;5.43;4.85;;;14.50;99.90;;;;;;4882909;29;20137;-82
2023/08/28 08:42:00;;;;;;;6.25;5.65;;;14.60;99.90;;;;;;4892522;29;20558;-83
2023/08/28 08:44:26;;;;;;;6.13;4.97;;;14.50;99.90;;;;;;4891132;29;20093;-85
2023/08/28 08:46:53;;;;;;;5.45;4.88;;;14.50;99.90;;;;;;4891937;29;20065;-85
2023/08/28 08:49:25;;;;;;;5.05;4.65;;;14.50;99.90;;;;;;4888634;29;20131;-84
2023/08/28 08:51:55;;;;;;;5.32;4.82;;;14.50;99.90;;;;;;4890645;29;20039;-84
2023/08/28 08:54:26;;;;;;;5.45;4.75;;;14.60;99.90;;;;;;4887859;29;20521;-84
2023/08/28 08:57:00;;;;;;;6.13;4.22;;;14.50;99.90;;;;;;4896043;29;20037;-85
2023/08/28 08:59:26;;;;;;;4.93;4.38;;;14.50;99.90;;;;;;4892114;29;20048;-82
2023/08/28 09:01:53;;;;;;;5.40;4.90;;;14.50;99.90;;;;;;4907543;29;20032;-83
2023/08/28 09:04:19;;;;;;;6.18;5.53;;;14.50;99.90;;;;;;4897763;29;20539;-83
2023/08/28 09:06:47;;;;;;;5.35;4.85;;;14.50;99.90;;;;;;4898153;29;20069;-82
2023/08/28 09:09:15;;;;;;;5.00;4.50;;;14.50;99.90;;;;;;4893074;29;20033;-85
2023/08/28 09:11:45;;;;;;;5.75;4.63;;;14.50;99.90;;;;;;4892981;29;20530;-83
2023/08/28 09:14:12;;;;;;;5.20;4.70;;;14.50;99.90;;;;;;4866493;29;20052;-84
2023/08/28 09:16:38;;;;;;;5.88;4.43;;;14.50;99.90;;;;;;4881869;29;20041;-83
2023/08/28 09:19:04;;;;;;;5.03;4.30;;;14.60;99.90;;;;;;4891993;29;20094;-82
2023/08/28 09:21:38;;;;;;;4.50;4.10;;;14.50;99.90;;;;;;4898023;29;20092;-84
2023/08/28 09:24:09;;;;;;;4.30;3.90;;;14.60;99.90;;;;;;4896111;29;20048;-82
2023/08/28 09:26:38;;;;;;;4.95;4.50;;;14.50;99.90;;;;;;4897856;29;20029;-83
2023/08/28 09:29:06;;;;;;;5.63;4.00;;;14.50;99.90;;;;;;4903875;29;20035;-83
2023/08/28 09:31:40;;;;;;;3.80;3.50;;;14.50;99.90;;;;;;4893596;29;20068;-82
2023/08/28 09:34:06;;;;;;;3.72;3.42;;;14.40;99.90;;;;;;4898423;29;20036;-83
2023/08/28 09:36:36;;;;;;;3.83;3.50;;;14.40;99.90;;;;;;4898053;29;20033;-84
2023/08/28 09:39:04;;;;;;;3.67;3.38;;;14.40;99.90;;;;;;4884141;29;20032;-83
2023/08/28 09:41:45;;;;;;;3.63;3.33;;;14.30;99.90;;;;;;4905772;29;20033;-84
2023/08/28 09:44:13;;;;;;;3.85;3.55;;;14.40;99.90;;;;;;4887020;29;20037;-84
2023/08/28 09:46:45;;;;;;;3.78;3.38;;;14.30;99.90;;;;;;4896869;29;20474;-83
2023/08/28 09:49:13;;;;;;;4.00;3.35;;;14.30;99.90;;;;;;4898038;29;20129;-83
2023/08/28 09:51:44;;;;;;;4.95;3.53;;;14.40;99.90;;;;;;4901763;29;20039;-84
2023/08/28 09:54:11;;;;;;;3.67;3.38;;;14.30;99.90;;;;;;4901191;29;20036;-82
2023/08/28 09:56:38;;;;;;;3.15;2.85;;;14.30;99.90;;;;;;4893812;29;20104;-84
2023/08/28 09:59:06;;;;;;;4.20;3.38;;;14.20;99.90;;;;;;4896427;29;20057;-84
2023/08/28 10:01:34;;;;;;;4.93;3.33;;;14.20;99.90;;;;;;4896707;29;20043;-84
2023/08/28 10:04:11;;;;;;;4.00;3.58;;;14.20;99.90;;;;;;4896036;29;20080;-83
2023/08/28 10:06:50;;;;;;;5.82;3.67;;;14.10;99.90;;;;;;4892033;29;20120;-82
2023/08/28 10:09:19;;;;;;;4.30;3.63;;;14.10;99.90;;;;;;4886789;29;20052;-82
2023/08/28 10:11:45;;;;;;;4.10;3.70;;;14.10;99.90;;;;;;4896565;29;20033;-82
2023/08/28 10:14:12;;;;;;;4.10;3.70;;;14.10;99.90;;;;;;4871504;29;20538;-84
2023/08/28 10:16:47;;;;;;;6.20;3.58;;;14.00;99.90;;;;;;4893024;29;20063;-82
2023/08/28 10:19:18;;;;;;;4.97;4.43;;;14.00;99.90;;;;;;4888018;29;20045;-81
2023/08/28 10:21:44;;;;;;;9.30;4.30;;;14.00;99.90;;;;;;4899940;29;20477;-81
2023/08/28 10:24:13;;;;;;;7.70;4.43;;;14.00;99.90;;;;;;4900275;29;20037;-82
2023/08/28 10:26:42;;;;;;;6.70;4.45;;;14.00;99.90;;;;;;4900185;29;20033;-81
2023/08/28 10:29:09;;;;;;;5.15;4.60;;;14.00;99.90;;;;;;4890939;29;20057;-81
2023/08/28 10:31:37;;;;;;;5.30;4.80;;;14.00;99.90;;;;;;4890378;29;20037;-81
2023/08/28 10:34:06;;;;;;;6.28;4.93;;;14.00;99.90;;;;;;4897068;29;20773;-81
2023/08/28 10:36:51;;;;;;;9.00;5.93;;;14.00;99.90;;;;;;4896301;29;20052;-80
2023/08/28 10:39:17;;;;;;;6.53;4.95;;;14.10;99.90;;;;;;4892290;29;20044;-82
2023/08/28 10:41:46;;;;;;;5.28;4.40;;;14.10;99.90;;;;;;4895338;29;20045;-83
2023/08/28 10:44:13;;;;;;;8.30;4.97;;;14.10;99.90;;;;;;4897177;29;20586;-81
2023/08/28 10:46:40;;;;;;;6.20;4.78;;;14.20;99.90;;;;;;4914854;29;20596;-80
2023/08/28 10:49:07;;;;;;;5.13;4.72;;;14.20;99.90;;;;;;4900557;29;20048;-81
2023/08/28 10:51:37;;;;;;;5.43;4.80;;;14.20;99.90;;;;;;4910676;29;20033;-80
2023/08/28 10:54:08;;;;;;;4.72;4.32;;;14.20;99.90;;;;;;4900820;29;20044;-80
2023/08/28 10:56:36;;;;;;;6.72;4.90;;;14.10;99.90;;;;;;4905499;29;20032;-80
2023/08/28 10:59:24;;;;;;;6.95;4.80;;;14.10;99.90;;;;;;4898451;29;20135;-79
2023/08/28 11:01:56;;;;;;;7.03;5.28;;;14.00;99.90;;;;;;4915754;29;20029;-80
2023/08/28 11:04:41;;;;;;;5.65;5.00;;;14.00;99.90;;;;;;4908214;29;20046;-80
2023/08/28 11:07:43;;;;;;;6.95;5.22;;;14.10;99.90;;;;;;4903579;29;20025;-81
2023/08/28 11:10:19;;;;;;;9.23;5.95;;;14.10;99.90;;;;;;4863498;29;20160;-80
2023/08/28 11:12:56;;;;;;;7.53;6.10;;;14.20;99.90;;;;;;4889009;29;20037;-82
2023/08/28 11:15:34;;;;;;;7.88;6.63;;;14.30;99.90;;;;;;4901846;29;20041;-82
2023/08/28 11:18:18;;;;;;;8.20;6.00;;;14.40;99.90;;;;;;4903787;29;20111;-81
2023/08/28 11:20:51;;;;;;;7.72;6.68;;;14.40;99.90;;;;;;4894377;29;20612;-80
2023/08/28 11:23:36;;;;;;;8.45;6.32;;;14.50;99.90;;;;;;4895062;29;20037;-82
2023/08/28 11:26:06;;;;;;;9.13;7.30;;;14.50;99.90;;;;;;4900512;29;20039;-79
2023/08/28 11:28:45;;;;;;;6.90;6.20;;;14.50;99.90;;;;;;4901239;29;20261;-80
2023/08/28 11:31:14;;;;;;;8.25;7.05;;;14.70;99.90;;;;;;4886431;29;20059;-80
2023/08/28 11:33:58;;;;;;;10.50;6.63;;;14.70;99.90;;;;;;4889893;29;20124;-81
2023/08/28 11:36:24;;;;;;;11.23;7.45;;;14.80;99.90;;;;;;4899937;29;20064;-80
2023/08/28 11:38:53;;;;;;;10.57;7.25;;;14.90;99.90;;;;;;4898109;29;20025;-80
2023/08/28 11:41:20;;;;;;;8.30;6.50;;;15.00;99.90;;;;;;4896991;29;20044;-80
2023/08/28 11:43:47;;;;;;;9.80;7.40;;;15.00;99.90;;;;;;4883903;29;20064;-80
2023/08/28 11:46:13;;;;;;;9.23;7.03;;;15.00;99.90;;;;;;4910315;29;20641;-81
2023/08/28 11:48:43;;;;;;;7.43;6.35;;;15.20;99.90;;;;;;4891492;29;20029;-81
2023/08/28 11:51:09;;;;;;;6.55;5.85;;;15.40;99.90;;;;;;4892788;29;20032;-79
2023/08/28 11:53:40;;;;;;;7.65;5.90;;;15.60;99.90;;;;;;4902662;29;20108;-81
2023/08/28 11:56:08;;;;;;;7.10;5.38;;;15.60;99.90;;;;;;4912885;29;20036;-81
2023/08/28 11:58:35;;;;;;;5.43;4.93;;;15.70;99.90;;;;;;4902408;29;20685;-82
2023/08/28 12:01:08;;;;;;;5.70;5.13;;;15.80;99.90;;;;;;4896477;29;20044;-82
2023/08/28 12:03:37;;;;;;;6.10;5.32;;;15.90;99.90;;;;;;4905559;29;20044;-82
2023/08/28 12:06:08;;;;;;;5.43;4.93;;;16.00;99.90;;;;;;4915851;29;20032;-81
2023/08/28 12:08:38;;;;;;;4.72;4.05;;;16.20;99.90;;;;;;4900763;29;20119;-82
2023/08/28 12:11:14;;;;;;;4.32;3.92;;;16.30;99.90;;;;;;4902877;29;20041;-83
2023/08/28 12:13:40;;;;;;;4.22;3.83;;;16.30;99.90;;;;;;4905628;29;20046;-83
2023/08/28 12:16:18;;;;;;;3.88;3.22;;;16.40;99.90;;;;;;4902110;29;20044;-83
2023/08/28 12:18:51;;;;;;;3.60;3.30;;;16.40;99.90;;;;;;4903665;29;20133;-81
2023/08/28 12:21:39;;;;;;;4.68;4.25;;;16.40;99.90;;;;;;4903723;29;20056;-82
2023/08/28 12:24:09;;;;;;;4.45;3.55;;;16.40;99.90;;;;;;4891632;29;20067;-84
2023/08/28 12:26:36;;;;;;;3.67;3.35;;;16.50;99.90;;;;;;4906183;29;20037;-82
2023/08/28 12:29:06;;;;;;;4.40;3.53;;;16.60;99.90;;;;;;4899108;29;20036;-82
2023/08/28 12:31:34;;;;;;;4.60;3.65;;;16.60;99.90;;;;;;4896003;29;20029;-82
2023/08/28 12:34:10;;;;;;;3.33;2.90;;;16.60;99.90;;;;;;4903481;29;20028;-82
2023/08/28 12:36:43;;;;;;;3.22;2.97;;;16.50;99.90;;;;;;4902605;29;20224;-82
2023/08/28 12:39:16;;;;;;;4.68;3.30;;;16.40;99.90;;;;;;4894633;29;20041;-82
2023/08/28 12:41:53;;;;;;;3.80;3.50;;;16.20;99.90;;;;;;4897391;29;20494;-83
2023/08/28 12:44:20;;;;;;;2.92;2.72;;;16.20;99.90;;;;;;4902210;29;20029;-82
2023/08/28 12:46:46;;;;;;;3.60;3.00;;;16.10;99.90;;;;;;4897155;29;20029;-83
2023/08/28 12:49:12;;;;;;;3.33;2.65;;;16.00;99.90;;;;;;4885639;29;20029;-82
2023/08/28 12:51:39;;;;;;;4.00;3.00;;;16.00;99.90;;;;;;4895593;29;20064;-83